Clermont Harbor, Mississippi
Current Conditions -  °F | °C
As of 12:53 PM on Thursday 23 Oct 2014 (Local Time) from KASD Reporting Station
Clear Clear  
Wind Chill: 72°   Ceiling: Unl
Heat Index: 72°   Visibility: 10mi
Dew Point: 45°   Wind: 8mph
Humidity: 38%   Direction: 10°N
Pressure: 30.08"   Gusts: 16mph
Location:  30.2253°N, 89.4838°W
Report Text: KASD 231753Z AUTO 01007G14KT 350V070 10SM CLR 22/07 A3008 RMK AO2 SLP185 T02220072 10228 20072 58015
Loading
Personal Weather Stations






























Interactive Weather Map
Tropical Storm Tracking
New forecast layout! Learn more

10-Day Weather Forecast

Advertisements
Track Severe Weather on mobile